Milford, PA (18337)

1:04 AM EST on January 29, 2015 (GMT -0500)
Oak Manor Drive | Change Station
CLOSE
Current Station
Personal Weather Station
Location: Milford, PA
Elevation: 902 ft
Nearby Weather Stations

Elev 902 ft 41.31 °N, 74.84 °W | Updated 25 seconds ago

Clear
Clear
13.5 °F
Feels Like 14 °F
N
1.1
Wind Variable Wind from West

Today
High -- | Low -- °F
--% Chance of Precip.
Yesterday
High -- | Low -- °F
Precip. -- in
7:13 AM 5:11 PM
Waxing Gibbous, 71% visible
Pressure 30.29 in
Visibility 10.0 miles
Clouds Clear
Windchill 14 °F
Dew Point 2 °F
Humidity 59%
Rainfall 0.00 in
Snow Depth Not available.
UV 0 out of 12
Pollen .10 out of 12
Air Quality Not available.
Flu Activity Not available.
METAR KFWN 290553Z AUTO 00000KT 10SM CLR M15/M18 A3027 RMK AO2 SLP256 T11501183 11028 21150 50006

More Conditions Fewer Conditions

Pressure 30.29 in
Visibility 10.0 miles
Clouds Clear
Windchill 14 °F
Dew Point 2 °F
Humidity 59%
Rainfall 0.00 in
Snow Depth Not available.
UV 0 out of 12
Pollen .10 out of 12
Air Quality Not available.
Flu Activity Not available.
METAR KFWN 290553Z AUTO 00000KT 10SM CLR M15/M18 A3027 RMK AO2 SLP256 T11501183 11028 21150 50006

More Conditions Fewer Conditions

10-Day Weather Forecast

Almanac

Astronomy

Jan. 29, 2015 Rise Set
Actual Time
Civil Twilight
Nautical Twilight
Astronomical Twilight
Moon
Length of Visible Light
Length of Day
Tomorrow will be .
, % of the Moon is Illuminated

Today's Extremes

State Highs State Lows

Community

WunderPhotos

Upload Photos

1,791,364 photos uploaded!

WunderBlogs® & News

Nearby

Air Quality

  Air Quality AQ Index Pollutant
Not available.

Snow Depth

Station Depth Elevation

Earthquake Activity

City Distance Mag. Time & Date
Minimum magnitude displayed is 2.5.

Coastal Water Temperatures

Place Temperature

Nearby Weather Stations